sensor_id;sensor_type;location;lat;lon;timestamp;P1;durP1;ratioP1;P2;durP2;ratioP2
75858;SDS011;64504;51.308;8.620;2023-04-15T00:00:25;9.05;;;8.05;;
75858;SDS011;64504;51.308;8.620;2023-04-15T00:02:50;11.00;;;7.78;;
75858;SDS011;64504;51.308;8.620;2023-04-15T00:05:17;10.40;;;8.10;;
75858;SDS011;64504;51.308;8.620;2023-04-15T00:07:42;9.55;;;7.10;;
75858;SDS011;64504;51.308;8.620;2023-04-15T00:10:08;7.72;;;6.80;;
75858;SDS011;64504;51.308;8.620;2023-04-15T00:12:33;10.15;;;7.95;;
75858;SDS011;64504;51.308;8.620;2023-04-15T00:14:58;12.32;;;6.63;;
75858;SDS011;64504;51.308;8.620;2023-04-15T00:17:24;8.02;;;6.80;;
75858;SDS011;64504;51.308;8.620;2023-04-15T00:19:50;8.98;;;7.07;;
75858;SDS011;64504;51.308;8.620;2023-04-15T00:22:15;10.98;;;8.65;;
75858;SDS011;64504;51.308;8.620;2023-04-15T00:24:43;10.20;;;8.45;;
75858;SDS011;64504;51.308;8.620;2023-04-15T00:27:08;7.82;;;7.05;;
75858;SDS011;64504;51.308;8.620;2023-04-15T00:29:34;11.05;;;8.77;;
75858;SDS011;64504;51.308;8.620;2023-04-15T00:32:00;11.35;;;8.65;;
75858;SDS011;64504;51.308;8.620;2023-04-15T00:34:25;9.90;;;7.57;;
75858;SDS011;64504;51.308;8.620;2023-04-15T00:36:51;14.43;;;8.00;;
75858;SDS011;64504;51.308;8.620;2023-04-15T00:39:17;9.10;;;7.00;;
75858;SDS011;64504;51.308;8.620;2023-04-15T00:41:43;11.80;;;9.32;;
75858;SDS011;64504;51.308;8.620;2023-04-15T00:44:09;8.93;;;7.88;;
75858;SDS011;64504;51.308;8.620;2023-04-15T00:46:35;8.35;;;7.57;;
75858;SDS011;64504;51.308;8.620;2023-04-15T00:49:06;9.70;;;7.50;;
75858;SDS011;64504;51.308;8.620;2023-04-15T00:51:32;16.95;;;8.77;;
75858;SDS011;64504;51.308;8.620;2023-04-15T00:54:00;9.82;;;8.77;;
75858;SDS011;64504;51.308;8.620;2023-04-15T00:56:29;11.15;;;8.55;;
75858;SDS011;64504;51.308;8.620;2023-04-15T00:58:55;13.85;;;9.98;;
75858;SDS011;64504;51.308;8.620;2023-04-15T01:01:21;8.18;;;7.15;;
75858;SDS011;64504;51.308;8.620;2023-04-15T01:03:49;10.55;;;8.20;;
75858;SDS011;64504;51.308;8.620;2023-04-15T01:06:15;11.15;;;7.78;;
75858;SDS011;64504;51.308;8.620;2023-04-15T01:08:41;12.10;;;7.22;;
75858;SDS011;64504;51.308;8.620;2023-04-15T01:11:07;12.95;;;9.85;;
75858;SDS011;64504;51.308;8.620;2023-04-15T01:13:32;12.18;;;8.90;;
75858;SDS011;64504;51.308;8.620;2023-04-15T01:15:58;11.88;;;9.15;;
75858;SDS011;64504;51.308;8.620;2023-04-15T01:18:23;10.27;;;8.77;;
75858;SDS011;64504;51.308;8.620;2023-04-15T01:20:49;16.30;;;8.75;;
75858;SDS011;64504;51.308;8.620;2023-04-15T01:23:15;10.63;;;8.35;;
75858;SDS011;64504;51.308;8.620;2023-04-15T01:25:41;10.55;;;8.93;;
75858;SDS011;64504;51.308;8.620;2023-04-15T01:28:08;12.02;;;8.23;;
75858;SDS011;64504;51.308;8.620;2023-04-15T01:30:34;17.27;;;10.35;;
75858;SDS011;64504;51.308;8.620;2023-04-15T01:32:59;10.32;;;8.95;;
75858;SDS011;64504;51.308;8.620;2023-04-15T01:35:25;12.70;;;9.55;;
75858;SDS011;64504;51.308;8.620;2023-04-15T01:37:51;12.63;;;11.07;;
75858;SDS011;64504;51.308;8.620;2023-04-15T01:40:18;14.25;;;10.20;;
75858;SDS011;64504;51.308;8.620;2023-04-15T01:42:43;13.35;;;8.40;;
75858;SDS011;64504;51.308;8.620;2023-04-15T01:45:09;13.82;;;10.68;;
75858;SDS011;64504;51.308;8.620;2023-04-15T01:47:35;11.80;;;10.02;;
75858;SDS011;64504;51.308;8.620;2023-04-15T01:50:00;17.58;;;10.77;;
75858;SDS011;64504;51.308;8.620;2023-04-15T01:52:26;12.48;;;8.50;;
75858;SDS011;64504;51.308;8.620;2023-04-15T01:54:51;14.27;;;10.27;;
75858;SDS011;64504;51.308;8.620;2023-04-15T01:57:17;14.68;;;10.63;;
75858;SDS011;64504;51.308;8.620;2023-04-15T01:59:43;12.02;;;10.73;;
75858;SDS011;64504;51.308;8.620;2023-04-15T02:02:08;9.48;;;8.52;;
75858;SDS011;64504;51.308;8.620;2023-04-15T02:04:34;18.67;;;10.88;;
75858;SDS011;64504;51.308;8.620;2023-04-15T02:06:59;18.52;;;10.93;;
75858;SDS011;64504;51.308;8.620;2023-04-15T02:09:25;11.10;;;9.95;;
75858;SDS011;64504;51.308;8.620;2023-04-15T02:11:51;14.38;;;11.18;;
75858;SDS011;64504;51.308;8.620;2023-04-15T02:14:18;15.35;;;12.00;;
75858;SDS011;64504;51.308;8.620;2023-04-15T02:16:43;13.48;;;10.88;;
75858;SDS011;64504;51.308;8.620;2023-04-15T02:19:09;16.98;;;9.85;;
75858;SDS011;64504;51.308;8.620;2023-04-15T02:21:34;14.55;;;10.32;;
75858;SDS011;64504;51.308;8.620;2023-04-15T02:24:00;12.93;;;10.10;;
75858;SDS011;64504;51.308;8.620;2023-04-15T02:26:26;12.20;;;9.88;;
75858;SDS011;64504;51.308;8.620;2023-04-15T02:28:52;12.30;;;9.10;;
75858;SDS011;64504;51.308;8.620;2023-04-15T02:31:19;16.08;;;12.15;;
75858;SDS011;64504;51.308;8.620;2023-04-15T02:33:45;13.23;;;10.50;;
75858;SDS011;64504;51.308;8.620;2023-04-15T02:36:11;18.70;;;12.13;;
75858;SDS011;64504;51.308;8.620;2023-04-15T02:38:36;13.50;;;9.43;;
75858;SDS011;64504;51.308;8.620;2023-04-15T02:41:02;11.85;;;10.60;;
75858;SDS011;64504;51.308;8.620;2023-04-15T02:43:27;15.30;;;9.85;;
75858;SDS011;64504;51.308;8.620;2023-04-15T02:45:53;13.65;;;10.88;;
75858;SDS011;64504;51.308;8.620;2023-04-15T02:48:18;10.27;;;9.18;;
75858;SDS011;64504;51.308;8.620;2023-04-15T02:50:45;15.15;;;9.32;;
75858;SDS011;64504;51.308;8.620;2023-04-15T02:53:10;14.23;;;9.63;;
75858;SDS011;64504;51.308;8.620;2023-04-15T02:55:37;13.15;;;10.15;;
75858;SDS011;64504;51.308;8.620;2023-04-15T02:58:02;19.65;;;9.38;;
75858;SDS011;64504;51.308;8.620;2023-04-15T03:00:28;14.00;;;9.50;;
75858;SDS011;64504;51.308;8.620;2023-04-15T03:02:57;14.45;;;9.70;;
75858;SDS011;64504;51.308;8.620;2023-04-15T03:05:26;11.65;;;10.30;;
75858;SDS011;64504;51.308;8.620;2023-04-15T03:07:52;11.80;;;9.55;;
75858;SDS011;64504;51.308;8.620;2023-04-15T03:10:17;13.32;;;9.02;;
75858;SDS011;64504;51.308;8.620;2023-04-15T03:12:43;13.88;;;8.80;;
75858;SDS011;64504;51.308;8.620;2023-04-15T03:15:08;9.82;;;8.90;;
75858;SDS011;64504;51.308;8.620;2023-04-15T03:17:34;11.07;;;8.27;;
75858;SDS011;64504;51.308;8.620;2023-04-15T03:20:03;8.02;;;6.38;;
75858;SDS011;64504;51.308;8.620;2023-04-15T03:22:32;9.27;;;7.88;;
75858;SDS011;64504;51.308;8.620;2023-04-15T03:24:57;14.70;;;8.73;;
75858;SDS011;64504;51.308;8.620;2023-04-15T03:27:23;12.25;;;9.00;;
75858;SDS011;64504;51.308;8.620;2023-04-15T03:29:49;11.13;;;8.35;;
75858;SDS011;64504;51.308;8.620;2023-04-15T03:32:15;13.13;;;8.10;;
75858;SDS011;64504;51.308;8.620;2023-04-15T03:34:40;13.15;;;9.27;;
75858;SDS011;64504;51.308;8.620;2023-04-15T03:37:06;9.90;;;8.77;;
75858;SDS011;64504;51.308;8.620;2023-04-15T03:39:31;11.02;;;8.63;;
75858;SDS011;64504;51.308;8.620;2023-04-15T03:41:57;12.25;;;8.70;;
75858;SDS011;64504;51.308;8.620;2023-04-15T03:44:23;10.90;;;9.35;;
75858;SDS011;64504;51.308;8.620;2023-04-15T03:46:50;16.42;;;7.47;;
75858;SDS011;64504;51.308;8.620;2023-04-15T03:49:15;11.90;;;7.95;;
75858;SDS011;64504;51.308;8.620;2023-04-15T03:51:41;10.63;;;6.88;;
75858;SDS011;64504;51.308;8.620;2023-04-15T03:54:06;10.55;;;8.85;;
75858;SDS011;64504;51.308;8.620;2023-04-15T03:56:33;12.38;;;9.63;;
75858;SDS011;64504;51.308;8.620;2023-04-15T03:58:58;10.32;;;9.27;;
75858;SDS011;64504;51.308;8.620;2023-04-15T04:01:24;9.32;;;8.43;;
75858;SDS011;64504;51.308;8.620;2023-04-15T04:03:50;10.85;;;8.60;;
75858;SDS011;64504;51.308;8.620;2023-04-15T04:06:15;7.72;;;6.60;;
75858;SDS011;64504;51.308;8.620;2023-04-15T04:08:41;13.60;;;8.65;;
75858;SDS011;64504;51.308;8.620;2023-04-15T04:11:07;12.50;;;7.88;;
75858;SDS011;64504;51.308;8.620;2023-04-15T04:13:32;8.27;;;7.03;;
75858;SDS011;64504;51.308;8.620;2023-04-15T04:15:58;12.65;;;9.20;;
75858;SDS011;64504;51.308;8.620;2023-04-15T04:18:23;11.00;;;8.00;;
75858;SDS011;64504;51.308;8.620;2023-04-15T04:20:49;9.70;;;7.75;;
75858;SDS011;64504;51.308;8.620;2023-04-15T04:23:14;11.18;;;7.57;;
75858;SDS011;64504;51.308;8.620;2023-04-15T04:25:39;11.52;;;9.18;;
75858;SDS011;64504;51.308;8.620;2023-04-15T04:28:05;8.57;;;7.50;;
75858;SDS011;64504;51.308;8.620;2023-04-15T04:30:31;9.15;;;8.15;;
75858;SDS011;64504;51.308;8.620;2023-04-15T04:32:56;9.80;;;7.22;;
75858;SDS011;64504;51.308;8.620;2023-04-15T04:35:22;8.20;;;7.50;;
75858;SDS011;64504;51.308;8.620;2023-04-15T04:37:47;8.60;;;7.20;;
75858;SDS011;64504;51.308;8.620;2023-04-15T04:40:13;10.98;;;8.00;;
75858;SDS011;64504;51.308;8.620;2023-04-15T04:42:38;17.08;;;8.00;;
75858;SDS011;64504;51.308;8.620;2023-04-15T04:45:04;10.60;;;7.22;;
75858;SDS011;64504;51.308;8.620;2023-04-15T04:47:30;7.57;;;6.80;;
75858;SDS011;64504;51.308;8.620;2023-04-15T04:49:55;8.52;;;7.43;;
75858;SDS011;64504;51.308;8.620;2023-04-15T04:52:21;11.80;;;8.70;;
75858;SDS011;64504;51.308;8.620;2023-04-15T04:54:46;9.50;;;8.60;;
75858;SDS011;64504;51.308;8.620;2023-04-15T04:57:12;11.15;;;8.30;;
75858;SDS011;64504;51.308;8.620;2023-04-15T04:59:38;11.68;;;7.78;;
75858;SDS011;64504;51.308;8.620;2023-04-15T05:02:03;9.18;;;6.50;;
75858;SDS011;64504;51.308;8.620;2023-04-15T05:04:29;12.60;;;8.07;;
75858;SDS011;64504;51.308;8.620;2023-04-15T05:06:56;11.52;;;8.60;;
75858;SDS011;64504;51.308;8.620;2023-04-15T05:09:22;9.65;;;8.10;;
75858;SDS011;64504;51.308;8.620;2023-04-15T05:11:47;9.77;;;7.18;;
75858;SDS011;64504;51.308;8.620;2023-04-15T05:14:13;8.20;;;7.35;;
75858;SDS011;64504;51.308;8.620;2023-04-15T05:16:38;7.68;;;6.88;;
75858;SDS011;64504;51.308;8.620;2023-04-15T05:19:03;7.72;;;6.85;;
75858;SDS011;64504;51.308;8.620;2023-04-15T05:21:30;9.35;;;7.50;;
75858;SDS011;64504;51.308;8.620;2023-04-15T05:23:55;10.23;;;7.35;;
75858;SDS011;64504;51.308;8.620;2023-04-15T05:26:21;8.98;;;8.07;;
75858;SDS011;64504;51.308;8.620;2023-04-15T05:28:46;10.40;;;9.40;;
75858;SDS011;64504;51.308;8.620;2023-04-15T05:31:12;10.15;;;7.10;;
75858;SDS011;64504;51.308;8.620;2023-04-15T05:33:38;11.45;;;9.38;;
75858;SDS011;64504;51.308;8.620;2023-04-15T05:36:04;10.05;;;7.82;;
75858;SDS011;64504;51.308;8.620;2023-04-15T05:38:30;11.45;;;9.95;;
75858;SDS011;64504;51.308;8.620;2023-04-15T05:41:05;8.60;;;6.95;;
75858;SDS011;64504;51.308;8.620;2023-04-15T05:43:30;9.52;;;8.52;;
75858;SDS011;64504;51.308;8.620;2023-04-15T05:45:56;11.38;;;9.50;;
75858;SDS011;64504;51.308;8.620;2023-04-15T05:48:21;12.52;;;8.45;;
75858;SDS011;64504;51.308;8.620;2023-04-15T05:50:46;11.32;;;9.82;;
75858;SDS011;64504;51.308;8.620;2023-04-15T05:53:12;14.75;;;12.40;;
75858;SDS011;64504;51.308;8.620;2023-04-15T05:55:37;17.95;;;14.48;;
75858;SDS011;64504;51.308;8.620;2023-04-15T05:58:03;19.55;;;15.57;;
75858;SDS011;64504;51.308;8.620;2023-04-15T06:00:31;16.10;;;14.20;;
75858;SDS011;64504;51.308;8.620;2023-04-15T06:02:56;16.08;;;13.07;;
75858;SDS011;64504;51.308;8.620;2023-04-15T06:05:23;19.65;;;15.68;;
75858;SDS011;64504;51.308;8.620;2023-04-15T06:07:48;18.85;;;15.20;;
75858;SDS011;64504;51.308;8.620;2023-04-15T06:10:14;16.48;;;14.75;;
75858;SDS011;64504;51.308;8.620;2023-04-15T06:12:40;21.10;;;15.90;;
75858;SDS011;64504;51.308;8.620;2023-04-15T06:15:06;20.33;;;16.83;;
75858;SDS011;64504;51.308;8.620;2023-04-15T06:17:33;23.58;;;18.25;;
75858;SDS011;64504;51.308;8.620;2023-04-15T06:19:59;21.38;;;16.63;;
75858;SDS011;64504;51.308;8.620;2023-04-15T06:22:24;19.48;;;15.23;;
75858;SDS011;64504;51.308;8.620;2023-04-15T06:24:51;15.90;;;12.38;;
75858;SDS011;64504;51.308;8.620;2023-04-15T06:27:17;14.30;;;12.10;;
75858;SDS011;64504;51.308;8.620;2023-04-15T06:29:43;17.02;;;12.07;;
75858;SDS011;64504;51.308;8.620;2023-04-15T06:32:08;14.20;;;11.32;;
75858;SDS011;64504;51.308;8.620;2023-04-15T06:34:36;12.40;;;9.25;;
75858;SDS011;64504;51.308;8.620;2023-04-15T06:37:01;14.57;;;12.23;;
75858;SDS011;64504;51.308;8.620;2023-04-15T06:39:27;19.50;;;12.98;;
75858;SDS011;64504;51.308;8.620;2023-04-15T06:41:52;21.30;;;12.15;;
75858;SDS011;64504;51.308;8.620;2023-04-15T06:44:18;14.57;;;12.00;;
75858;SDS011;64504;51.308;8.620;2023-04-15T06:46:43;13.45;;;11.02;;
75858;SDS011;64504;51.308;8.620;2023-04-15T06:49:09;14.80;;;10.68;;
75858;SDS011;64504;51.308;8.620;2023-04-15T06:51:35;14.40;;;12.20;;
75858;SDS011;64504;51.308;8.620;2023-04-15T06:54:01;15.82;;;12.02;;
75858;SDS011;64504;51.308;8.620;2023-04-15T06:56:29;11.73;;;10.40;;
75858;SDS011;64504;51.308;8.620;2023-04-15T06:58:55;19.15;;;14.63;;
75858;SDS011;64504;51.308;8.620;2023-04-15T07:01:21;16.60;;;12.05;;
75858;SDS011;64504;51.308;8.620;2023-04-15T07:03:47;13.65;;;10.75;;
75858;SDS011;64504;51.308;8.620;2023-04-15T07:06:12;15.32;;;11.43;;
75858;SDS011;64504;51.308;8.620;2023-04-15T07:08:38;17.38;;;13.10;;
75858;SDS011;64504;51.308;8.620;2023-04-15T07:11:03;15.10;;;12.55;;
75858;SDS011;64504;51.308;8.620;2023-04-15T07:13:30;14.57;;;11.30;;
75858;SDS011;64504;51.308;8.620;2023-04-15T07:15:56;18.23;;;14.57;;
75858;SDS011;64504;51.308;8.620;2023-04-15T07:18:21;18.98;;;13.27;;
75858;SDS011;64504;51.308;8.620;2023-04-15T07:20:46;18.88;;;13.88;;
75858;SDS011;64504;51.308;8.620;2023-04-15T07:23:12;17.65;;;13.90;;
75858;SDS011;64504;51.308;8.620;2023-04-15T07:25:38;17.77;;;14.20;;
75858;SDS011;64504;51.308;8.620;2023-04-15T07:28:03;16.15;;;13.82;;
75858;SDS011;64504;51.308;8.620;2023-04-15T07:30:30;15.98;;;12.65;;
75858;SDS011;64504;51.308;8.620;2023-04-15T07:32:55;17.13;;;13.85;;
75858;SDS011;64504;51.308;8.620;2023-04-15T07:35:22;18.70;;;13.65;;
75858;SDS011;64504;51.308;8.620;2023-04-15T07:37:49;19.20;;;13.77;;
75858;SDS011;64504;51.308;8.620;2023-04-15T07:40:15;22.38;;;13.98;;
75858;SDS011;64504;51.308;8.620;2023-04-15T07:42:40;19.35;;;14.60;;
75858;SDS011;64504;51.308;8.620;2023-04-15T07:45:06;15.73;;;14.00;;
75858;SDS011;64504;51.308;8.620;2023-04-15T07:47:33;17.95;;;13.90;;
75858;SDS011;64504;51.308;8.620;2023-04-15T07:49:58;16.88;;;13.15;;
75858;SDS011;64504;51.308;8.620;2023-04-15T07:52:24;15.25;;;12.43;;
75858;SDS011;64504;51.308;8.620;2023-04-15T07:54:49;17.23;;;13.50;;
75858;SDS011;64504;51.308;8.620;2023-04-15T07:57:16;17.15;;;12.93;;
75858;SDS011;64504;51.308;8.620;2023-04-15T07:59:41;18.05;;;11.63;;
75858;SDS011;64504;51.308;8.620;2023-04-15T08:02:07;16.50;;;13.55;;
75858;SDS011;64504;51.308;8.620;2023-04-15T08:04:32;20.77;;;14.98;;
75858;SDS011;64504;51.308;8.620;2023-04-15T08:06:58;14.32;;;12.85;;
75858;SDS011;64504;51.308;8.620;2023-04-15T08:09:23;21.23;;;14.77;;
75858;SDS011;64504;51.308;8.620;2023-04-15T08:11:52;16.08;;;14.25;;
75858;SDS011;64504;51.308;8.620;2023-04-15T08:14:18;18.27;;;14.65;;
75858;SDS011;64504;51.308;8.620;2023-04-15T08:16:43;19.02;;;15.00;;
75858;SDS011;64504;51.308;8.620;2023-04-15T08:19:08;13.50;;;12.07;;
75858;SDS011;64504;51.308;8.620;2023-04-15T08:21:35;18.45;;;13.05;;
75858;SDS011;64504;51.308;8.620;2023-04-15T08:24:01;16.83;;;12.05;;
75858;SDS011;64504;51.308;8.620;2023-04-15T08:26:27;16.63;;;13.32;;
75858;SDS011;64504;51.308;8.620;2023-04-15T08:28:52;14.70;;;10.73;;
75858;SDS011;64504;51.308;8.620;2023-04-15T08:31:18;15.70;;;12.63;;
75858;SDS011;64504;51.308;8.620;2023-04-15T08:33:43;12.40;;;10.55;;
75858;SDS011;64504;51.308;8.620;2023-04-15T08:36:10;12.80;;;10.88;;
75858;SDS011;64504;51.308;8.620;2023-04-15T08:38:35;13.00;;;11.73;;
75858;SDS011;64504;51.308;8.620;2023-04-15T08:41:22;13.23;;;11.48;;
75858;SDS011;64504;51.308;8.620;2023-04-15T08:43:56;13.43;;;11.60;;
75858;SDS011;64504;51.308;8.620;2023-04-15T08:46:22;11.18;;;10.10;;
75858;SDS011;64504;51.308;8.620;2023-04-15T08:48:48;16.08;;;9.57;;
75858;SDS011;64504;51.308;8.620;2023-04-15T08:51:15;13.80;;;9.07;;
75858;SDS011;64504;51.308;8.620;2023-04-15T08:53:42;13.43;;;10.27;;
75858;SDS011;64504;51.308;8.620;2023-04-15T08:56:08;14.80;;;11.13;;
75858;SDS011;64504;51.308;8.620;2023-04-15T08:58:37;14.77;;;11.43;;
75858;SDS011;64504;51.308;8.620;2023-04-15T09:01:02;14.90;;;10.23;;
75858;SDS011;64504;51.308;8.620;2023-04-15T09:03:28;13.65;;;10.68;;
75858;SDS011;64504;51.308;8.620;2023-04-15T09:05:54;12.63;;;8.60;;
75858;SDS011;64504;51.308;8.620;2023-04-15T09:08:22;12.75;;;10.35;;
75858;SDS011;64504;51.308;8.620;2023-04-15T09:10:47;16.30;;;10.52;;
75858;SDS011;64504;51.308;8.620;2023-04-15T09:13:13;10.93;;;9.70;;
75858;SDS011;64504;51.308;8.620;2023-04-15T09:15:38;13.15;;;10.38;;
75858;SDS011;64504;51.308;8.620;2023-04-15T09:18:05;16.67;;;12.30;;
75858;SDS011;64504;51.308;8.620;2023-04-15T09:20:37;12.25;;;10.20;;
75858;SDS011;64504;51.308;8.620;2023-04-15T09:23:10;11.05;;;9.65;;
75858;SDS011;64504;51.308;8.620;2023-04-15T09:25:39;14.90;;;11.05;;
75858;SDS011;64504;51.308;8.620;2023-04-15T09:28:08;17.45;;;11.07;;
75858;SDS011;64504;51.308;8.620;2023-04-15T09:30:34;15.18;;;10.70;;
75858;SDS011;64504;51.308;8.620;2023-04-15T09:33:01;12.52;;;9.70;;
75858;SDS011;64504;51.308;8.620;2023-04-15T09:35:27;15.55;;;10.60;;
75858;SDS011;64504;51.308;8.620;2023-04-15T09:37:53;11.88;;;10.73;;
75858;SDS011;64504;51.308;8.620;2023-04-15T09:40:30;10.77;;;9.25;;
75858;SDS011;64504;51.308;8.620;2023-04-15T09:42:56;13.40;;;10.80;;
75858;SDS011;64504;51.308;8.620;2023-04-15T09:45:22;12.38;;;10.13;;
75858;SDS011;64504;51.308;8.620;2023-04-15T09:47:48;13.90;;;10.23;;
75858;SDS011;64504;51.308;8.620;2023-04-15T09:50:15;14.73;;;10.65;;
75858;SDS011;64504;51.308;8.620;2023-04-15T09:52:41;17.20;;;12.63;;
75858;SDS011;64504;51.308;8.620;2023-04-15T09:55:10;15.30;;;11.02;;
75858;SDS011;64504;51.308;8.620;2023-04-15T09:57:38;10.77;;;9.27;;
75858;SDS011;64504;51.308;8.620;2023-04-15T10:00:06;10.65;;;9.40;;
75858;SDS011;64504;51.308;8.620;2023-04-15T10:02:33;12.38;;;10.55;;
75858;SDS011;64504;51.308;8.620;2023-04-15T10:05:00;12.35;;;9.90;;
75858;SDS011;64504;51.308;8.620;2023-04-15T10:07:28;13.68;;;11.23;;
75858;SDS011;64504;51.308;8.620;2023-04-15T10:09:54;12.35;;;10.45;;
75858;SDS011;64504;51.308;8.620;2023-04-15T10:12:19;15.60;;;11.30;;
75858;SDS011;64504;51.308;8.620;2023-04-15T10:14:57;13.20;;;10.20;;
75858;SDS011;64504;51.308;8.620;2023-04-15T10:17:25;15.55;;;10.73;;
75858;SDS011;64504;51.308;8.620;2023-04-15T10:19:59;14.43;;;11.95;;
75858;SDS011;64504;51.308;8.620;2023-04-15T10:22:26;14.93;;;12.02;;
75858;SDS011;64504;51.308;8.620;2023-04-15T10:24:55;12.90;;;11.40;;
75858;SDS011;64504;51.308;8.620;2023-04-15T10:27:22;14.82;;;10.82;;
75858;SDS011;64504;51.308;8.620;2023-04-15T10:29:49;12.20;;;10.85;;
75858;SDS011;64504;51.308;8.620;2023-04-15T10:32:17;13.23;;;10.02;;
75858;SDS011;64504;51.308;8.620;2023-04-15T10:34:43;13.23;;;10.57;;
75858;SDS011;64504;51.308;8.620;2023-04-15T10:37:09;11.27;;;9.93;;
75858;SDS011;64504;51.308;8.620;2023-04-15T10:42:05;12.30;;;8.75;;
75858;SDS011;64504;51.308;8.620;2023-04-15T10:44:44;11.93;;;8.15;;
75858;SDS011;64504;51.308;8.620;2023-04-15T10:47:14;10.88;;;8.13;;
75858;SDS011;64504;51.308;8.620;2023-04-15T10:49:48;7.80;;;6.95;;
75858;SDS011;64504;51.308;8.620;2023-04-15T10:52:16;7.57;;;6.57;;
75858;SDS011;64504;51.308;8.620;2023-04-15T10:54:42;7.78;;;7.07;;
75858;SDS011;64504;51.308;8.620;2023-04-15T10:57:13;9.52;;;7.38;;
75858;SDS011;64504;51.308;8.620;2023-04-15T10:59:59;10.30;;;7.32;;
75858;SDS011;64504;51.308;8.620;2023-04-15T11:02:42;9.07;;;6.82;;
75858;SDS011;64504;51.308;8.620;2023-04-15T11:05:11;7.55;;;6.05;;
75858;SDS011;64504;51.308;8.620;2023-04-15T11:07:48;7.78;;;5.03;;
75858;SDS011;64504;51.308;8.620;2023-04-15T11:12:55;5.05;;;4.55;;
75858;SDS011;64504;51.308;8.620;2023-04-15T11:21:13;7.47;;;4.05;;
75858;SDS011;64504;51.308;8.620;2023-04-15T11:23:39;4.43;;;3.53;;
75858;SDS011;64504;51.308;8.620;2023-04-15T11:26:08;5.55;;;4.65;;
75858;SDS011;64504;51.308;8.620;2023-04-15T11:28:36;3.78;;;2.63;;
75858;SDS011;64504;51.308;8.620;2023-04-15T11:31:07;5.13;;;3.33;;
75858;SDS011;64504;51.308;8.620;2023-04-15T11:33:38;3.20;;;2.92;;
75858;SDS011;64504;51.308;8.620;2023-04-15T11:36:10;3.65;;;2.95;;
75858;SDS011;64504;51.308;8.620;2023-04-15T11:38:35;5.20;;;3.63;;
75858;SDS011;64504;51.308;8.620;2023-04-15T11:41:02;3.15;;;2.85;;
75858;SDS011;64504;51.308;8.620;2023-04-15T11:43:28;5.43;;;3.25;;
75858;SDS011;64504;51.308;8.620;2023-04-15T11:45:59;3.78;;;2.60;;
75858;SDS011;64504;51.308;8.620;2023-04-15T11:48:30;3.17;;;2.67;;
75858;SDS011;64504;51.308;8.620;2023-04-15T11:50:58;2.95;;;2.67;;
75858;SDS011;64504;51.308;8.620;2023-04-15T11:53:35;3.78;;;2.78;;
75858;SDS011;64504;51.308;8.620;2023-04-15T11:56:05;2.20;;;2.10;;
75858;SDS011;64504;51.308;8.620;2023-04-15T11:58:32;2.75;;;2.25;;
75858;SDS011;64504;51.308;8.620;2023-04-15T12:00:59;2.17;;;1.90;;
75858;SDS011;64504;51.308;8.620;2023-04-15T12:03:32;3.50;;;2.47;;
75858;SDS011;64504;51.308;8.620;2023-04-15T12:06:03;4.57;;;2.63;;
75858;SDS011;64504;51.308;8.620;2023-04-15T12:11:14;2.45;;;1.63;;
75858;SDS011;64504;51.308;8.620;2023-04-15T12:13:43;2.67;;;2.30;;
75858;SDS011;64504;51.308;8.620;2023-04-15T12:16:10;2.92;;;2.53;;
75858;SDS011;64504;51.308;8.620;2023-04-15T12:18:37;2.15;;;1.95;;
75858;SDS011;64504;51.308;8.620;2023-04-15T12:21:09;1.48;;;1.38;;
75858;SDS011;64504;51.308;8.620;2023-04-15T12:23:54;1.38;;;1.27;;
75858;SDS011;64504;51.308;8.620;2023-04-15T12:26:27;1.75;;;1.65;;
75858;SDS011;64504;51.308;8.620;2023-04-15T12:28:54;2.25;;;1.98;;
75858;SDS011;64504;51.308;8.620;2023-04-15T12:31:26;2.20;;;1.70;;
75858;SDS011;64504;51.308;8.620;2023-04-15T12:33:57;1.42;;;1.15;;
75858;SDS011;64504;51.308;8.620;2023-04-15T12:36:26;2.47;;;1.88;;
75858;SDS011;64504;51.308;8.620;2023-04-15T12:38:54;2.78;;;1.58;;
75858;SDS011;64504;51.308;8.620;2023-04-15T12:41:21;1.73;;;1.63;;
75858;SDS011;64504;51.308;8.620;2023-04-15T12:43:48;2.97;;;2.15;;
75858;SDS011;64504;51.308;8.620;2023-04-15T12:46:14;1.20;;;1.10;;
75858;SDS011;64504;51.308;8.620;2023-04-15T12:48:40;1.80;;;1.70;;
75858;SDS011;64504;51.308;8.620;2023-04-15T12:51:08;1.50;;;1.40;;
75858;SDS011;64504;51.308;8.620;2023-04-15T12:53:33;1.75;;;1.48;;
75858;SDS011;64504;51.308;8.620;2023-04-15T12:55:59;1.33;;;1.23;;
75858;SDS011;64504;51.308;8.620;2023-04-15T12:58:24;1.80;;;1.70;;
75858;SDS011;64504;51.308;8.620;2023-04-15T13:00:49;1.58;;;1.48;;
75858;SDS011;64504;51.308;8.620;2023-04-15T13:03:15;1.73;;;1.63;;
75858;SDS011;64504;51.308;8.620;2023-04-15T13:05:41;1.02;;;1.02;;
75858;SDS011;64504;51.308;8.620;2023-04-15T13:08:06;2.75;;;1.63;;
75858;SDS011;64504;51.308;8.620;2023-04-15T13:10:33;1.38;;;1.02;;
75858;SDS011;64504;51.308;8.620;2023-04-15T13:13:01;2.33;;;2.13;;
75858;SDS011;64504;51.308;8.620;2023-04-15T13:15:27;1.40;;;1.27;;
75858;SDS011;64504;51.308;8.620;2023-04-15T13:17:53;1.33;;;1.23;;
75858;SDS011;64504;51.308;8.620;2023-04-15T13:20:18;1.38;;;1.27;;
75858;SDS011;64504;51.308;8.620;2023-04-15T13:22:45;1.42;;;1.23;;
75858;SDS011;64504;51.308;8.620;2023-04-15T13:25:11;0.50;;;0.50;;
75858;SDS011;64504;51.308;8.620;2023-04-15T13:27:37;0.77;;;0.77;;
75858;SDS011;64504;51.308;8.620;2023-04-15T13:30:03;1.83;;;1.42;;
75858;SDS011;64504;51.308;8.620;2023-04-15T13:32:32;1.13;;;1.02;;
75858;SDS011;64504;51.308;8.620;2023-04-15T13:34:57;1.13;;;1.02;;
75858;SDS011;64504;51.308;8.620;2023-04-15T13:37:27;1.27;;;0.93;;
75858;SDS011;64504;51.308;8.620;2023-04-15T13:39:55;0.98;;;0.98;;
75858;SDS011;64504;51.308;8.620;2023-04-15T13:42:24;0.98;;;0.95;;
75858;SDS011;64504;51.308;8.620;2023-04-15T13:44:51;0.75;;;0.75;;
75858;SDS011;64504;51.308;8.620;2023-04-15T13:47:18;0.93;;;0.70;;
75858;SDS011;64504;51.308;8.620;2023-04-15T13:49:44;1.13;;;1.05;;
75858;SDS011;64504;51.308;8.620;2023-04-15T13:52:10;1.75;;;1.17;;
75858;SDS011;64504;51.308;8.620;2023-04-15T13:54:40;1.65;;;1.08;;
75858;SDS011;64504;51.308;8.620;2023-04-15T13:57:06;1.02;;;0.95;;
75858;SDS011;64504;51.308;8.620;2023-04-15T13:59:33;1.25;;;1.05;;
75858;SDS011;64504;51.308;8.620;2023-04-15T14:01:59;0.65;;;0.65;;
75858;SDS011;64504;51.308;8.620;2023-04-15T14:04:32;0.80;;;0.70;;
75858;SDS011;64504;51.308;8.620;2023-04-15T14:06:57;4.55;;;1.30;;
75858;SDS011;64504;51.308;8.620;2023-04-15T14:09:23;2.30;;;0.73;;
75858;SDS011;64504;51.308;8.620;2023-04-15T14:11:49;1.13;;;1.02;;
75858;SDS011;64504;51.308;8.620;2023-04-15T14:14:15;1.00;;;0.90;;
75858;SDS011;64504;51.308;8.620;2023-04-15T14:16:40;0.70;;;0.70;;
75858;SDS011;64504;51.308;8.620;2023-04-15T14:19:06;0.60;;;0.57;;
75858;SDS011;64504;51.308;8.620;2023-04-15T14:21:31;2.28;;;1.40;;
75858;SDS011;64504;51.308;8.620;2023-04-15T14:23:57;1.42;;;0.95;;
75858;SDS011;64504;51.308;8.620;2023-04-15T14:26:23;2.55;;;2.28;;
75858;SDS011;64504;51.308;8.620;2023-04-15T14:28:49;0.73;;;0.70;;
75858;SDS011;64504;51.308;8.620;2023-04-15T14:31:14;1.45;;;1.35;;
75858;SDS011;64504;51.308;8.620;2023-04-15T14:33:40;1.02;;;0.85;;
75858;SDS011;64504;51.308;8.620;2023-04-15T14:36:06;1.15;;;1.10;;
75858;SDS011;64504;51.308;8.620;2023-04-15T14:38:35;2.97;;;2.25;;
75858;SDS011;64504;51.308;8.620;2023-04-15T14:41:03;2.65;;;1.02;;
75858;SDS011;64504;51.308;8.620;2023-04-15T14:43:29;1.35;;;1.25;;
75858;SDS011;64504;51.308;8.620;2023-04-15T14:45:55;0.55;;;0.55;;